00:04
Airports
History
Links
Donate
Help keep this website running!
PayPal
Bitcoin
This page is community maintained. The information is intended for PC simulator navigation or reference.
Always use approved charts for navigation.
SWPV
Planaltina
Planaltina (SWPV)
Brasília, Distrito Federal, Brazil
4
Lat/Lng:15° 40' 44" S / 47° 32' 39" W
-15.678889 / -47.544167
Elevation:3806'ft / 1160mMSL
ID / ICAO:SWPV
Runways:1
Longest:11-29
Gravel 1,094m / 3,591ft
Nearby Weather23:00 GMT 2017-10-16
Nearby weather at SBBR, Brasilia Presidente Juscelino Kubitsch located 28.2 nautical miles from SWPV
Altimeter: 30.09
Visibility: 6.2 statute miles
Wind: 8 knots (from 090°)
Temp: 28°c / 82°f
Humidity: 32.5%

METAR: SBBR 162300Z 09008KT CAVOK 28/10 Q1019

(Powered by phpweather)
Runway 11 / 29
Dimensions:1094.4 x 20.1m 3591' x 66'ft
Surface:Gravel
Runway 11 [A]Runway 29 [B]
Heading:088°TH 268°TH
Lat:
Lng:
15° 40' 44.32"S
47° 32' 57.51"W
15° 40' 43.68"S
47° 32' 20.49"W
User Notes and Comments
15° 40' 44" S / 47° 32' 39" W
Distance To
Airport ID:
Nearby Airports
4 Aerorancho 14.9 NM
SDNT W 269°
(C) Formosa 15.8 NM
SWFR ENE 57°
4 Piquet 21.2 NM
SSGP SW 235°
4 Botelho 21.6 NM
SIQE SSW 212°
(C) Brasilia Presidente Juscelino Kubitsch 28.2 NM
SBBR ( WX ) WSW 241°
(U) Fazenda Pamplona 37.6 NM
SWFA S 188°
4 Avstal 49.1 NM
SJPQ SSE 154°
VFR Chart
Flight Planning at SkyVector.com